createdAt,value
2022-08-27T00:02:17.833Z,100529.78
2022-08-27T00:04:48.538Z,100529.78
2022-08-27T00:07:17.358Z,100529.22
2022-08-27T00:09:45.981Z,100533.09
2022-08-27T00:12:14.521Z,100534.19
2022-08-27T00:14:42.973Z,100534.47
2022-08-27T00:17:11.566Z,100528.69
2022-08-27T00:19:41.142Z,100533.63
2022-08-27T00:22:12.182Z,100525.63
2022-08-27T00:24:48.500Z,100527.56
2022-08-27T00:27:18.241Z,100528.13
2022-08-27T00:29:47.348Z,100521.50
2022-08-27T00:32:15.951Z,100522.59
2022-08-27T00:34:44.761Z,100533.91
2022-08-27T00:37:14.851Z,100531.97
2022-08-27T00:39:43.379Z,100524.78
2022-08-27T00:42:12.222Z,100536.66
2022-08-27T00:44:40.901Z,100529.75
2022-08-27T00:47:14.047Z,100538.31
2022-08-27T00:49:46.796Z,100538.03
2022-08-27T00:52:22.147Z,100540.22
2022-08-27T00:54:53.623Z,100536.31
2022-08-27T00:57:22.471Z,100533.56
2022-08-27T00:59:50.995Z,100534.13
2022-08-27T01:02:26.297Z,100537.44
2022-08-27T01:05:00.125Z,100534.63
2022-08-27T01:07:33.255Z,100534.31
2022-08-27T01:10:04.081Z,100536.25
2022-08-27T01:12:35.006Z,100543.13
2022-08-27T01:15:10.961Z,100536.50
2022-08-27T01:17:41.574Z,100528.78
2022-08-27T01:20:15.988Z,100538.16
2022-08-27T01:22:54.733Z,100545.84
2022-08-27T01:25:26.772Z,100540.34
2022-08-27T01:28:00.761Z,100541.19
2022-08-27T01:30:29.853Z,100548.59
2022-08-27T01:32:58.881Z,100537.56
2022-08-27T01:35:27.864Z,100543.38
2022-08-27T01:37:57.072Z,100545.56
2022-08-27T01:40:27.548Z,100549.41
2022-08-27T01:42:58.405Z,100549.94
2022-08-27T01:45:29.749Z,100554.06
2022-08-27T01:47:59.874Z,100553.22
2022-08-27T01:50:31.993Z,100552.41
2022-08-27T01:53:04.024Z,100561.47
2022-08-27T01:55:34.126Z,100558.13
2022-08-27T01:58:02.656Z,100559.75
2022-08-27T02:00:34.044Z,100560.00
2022-08-27T02:03:02.826Z,100562.75
2022-08-27T02:05:31.860Z,100552.28
2022-08-27T02:08:13.692Z,100560.84
2022-08-27T02:10:44.988Z,100561.66
2022-08-27T02:13:13.962Z,100563.28
2022-08-27T02:15:43.832Z,100558.84
2022-08-27T02:18:14.046Z,100567.41
2022-08-27T02:20:42.936Z,100559.91
2022-08-27T02:23:11.455Z,100567.59
2022-08-27T02:25:41.029Z,100565.13
2022-08-27T02:28:11.601Z,100569.22
2022-08-27T02:30:40.771Z,100573.31
2022-08-27T02:33:09.299Z,100572.78
2022-08-27T02:35:40.126Z,100576.88
2022-08-27T02:38:09.401Z,100577.69
2022-08-27T02:40:38.527Z,100579.84
2022-08-27T02:43:07.781Z,100573.22
2022-08-27T02:45:37.994Z,100579.00
2022-08-27T02:48:07.961Z,100575.69
2022-08-27T02:50:37.183Z,100573.22
2022-08-27T02:53:07.270Z,100576.19
2022-08-27T02:55:35.891Z,100575.38
2022-08-27T02:58:06.066Z,100577.00
2022-08-27T03:00:34.775Z,100572.31
2022-08-27T03:03:04.779Z,100578.06
2022-08-27T03:05:33.522Z,100589.06
2022-08-27T03:08:03.679Z,100584.06
2022-08-27T03:10:32.261Z,100584.06
2022-08-27T03:13:00.725Z,100581.31
2022-08-27T03:15:29.768Z,100589.84
2022-08-27T03:18:15.673Z,100590.88
2022-08-27T03:20:48.218Z,100590.63
2022-08-27T03:23:17.936Z,100590.88
2022-08-27T03:25:49.427Z,100588.97
2022-08-27T03:28:23.360Z,100601.06
2022-08-27T03:30:54.580Z,100608.69
2022-08-27T03:33:23.478Z,100602.91
2022-08-27T03:35:54.012Z,100605.06
2022-08-27T03:38:22.869Z,100606.16
2022-08-27T03:40:52.568Z,100615.16
2022-08-27T03:43:22.393Z,100606.09
2022-08-27T03:46:00.522Z,100607.78
2022-08-27T03:48:32.158Z,100605.84
2022-08-27T03:51:06.893Z,100605.56
2022-08-27T03:53:35.744Z,100605.56
2022-08-27T03:56:06.420Z,100607.50
2022-08-27T03:58:35.621Z,100605.56
2022-08-27T04:01:05.194Z,100608.09
2022-08-27T04:03:34.407Z,100605.34
2022-08-27T04:06:04.802Z,100610.75
2022-08-27T04:08:33.527Z,100605.84
2022-08-27T04:11:01.970Z,100603.69
2022-08-27T04:13:30.494Z,100605.56
2022-08-27T04:15:59.012Z,100604.50
2022-08-27T04:18:27.605Z,100609.19
2022-08-27T04:20:56.957Z,100605.34
2022-08-27T04:23:26.806Z,100610.00
2022-08-27T04:25:55.324Z,100608.31
2022-08-27T04:28:24.541Z,100600.66
2022-08-27T04:30:53.107Z,100606.47
2022-08-27T04:33:21.649Z,100609.00
2022-08-27T04:35:59.273Z,100603.53
2022-08-27T04:38:29.502Z,100609.63
2022-08-27T04:41:15.514Z,100607.13
2022-08-27T04:43:44.201Z,100606.06
2022-08-27T04:46:12.918Z,100599.75
2022-08-27T04:48:41.436Z,100599.78
2022-08-27T04:51:09.896Z,100598.44
2022-08-27T04:53:43.026Z,100605.59
2022-08-27T04:56:15.400Z,100601.25
2022-08-27T04:58:44.346Z,100594.66
2022-08-27T05:01:18.171Z,100622.09
2022-08-27T05:03:47.238Z,100629.13
2022-08-27T05:06:16.486Z,100618.19
2022-08-27T05:08:46.646Z,100615.75
2022-08-27T05:11:17.170Z,100620.66
2022-08-27T05:13:47.334Z,100613.00
2022-08-27T05:16:19.600Z,100608.91
2022-08-27T05:18:50.720Z,100603.78
2022-08-27T05:21:20.810Z,100606.88
2022-08-27T05:23:51.058Z,100616.00
2022-08-27T05:26:19.775Z,100609.41
2022-08-27T05:28:49.538Z,100605.13
2022-08-27T05:31:21.075Z,100612.63
2022-08-27T05:33:50.530Z,100605.78
2022-08-27T05:36:21.813Z,100603.88
2022-08-27T05:38:51.820Z,100603.94
2022-08-27T05:41:34.240Z,100606.16
2022-08-27T05:44:24.017Z,100609.78
2022-08-27T05:46:54.820Z,100602.94
2022-08-27T05:49:23.297Z,100599.34
2022-08-27T05:51:52.093Z,100600.78
2022-08-27T05:54:21.922Z,100600.28
2022-08-27T05:56:51.108Z,100598.94
2022-08-27T05:59:37.469Z,100597.84
2022-08-27T06:02:07.459Z,100602.88
2022-08-27T06:04:36.026Z,100593.22
2022-08-27T06:07:06.739Z,100598.19
2022-08-27T06:09:36.602Z,100596.00
2022-08-27T06:12:05.633Z,100594.09
2022-08-27T06:14:34.146Z,100588.88
2022-08-27T06:17:03.170Z,100596.06
2022-08-27T06:19:31.997Z,100593.28
2022-08-27T06:22:09.899Z,100593.31
2022-08-27T06:24:42.524Z,100598.00
2022-08-27T06:27:13.602Z,100595.50
2022-08-27T06:29:42.830Z,100593.00
2022-08-27T06:32:12.214Z,100589.97
2022-08-27T06:34:41.102Z,100595.22
2022-08-27T06:37:10.332Z,100586.66
2022-08-27T06:39:40.917Z,100589.97
2022-08-27T06:42:13.489Z,100599.31
2022-08-27T06:44:42.428Z,100592.72
2022-08-27T06:47:10.935Z,100594.06
2022-08-27T06:49:41.353Z,100587.13
2022-08-27T06:52:12.293Z,100584.09
2022-08-27T06:54:42.186Z,100588.19
2022-08-27T06:57:10.670Z,100586.53
2022-08-27T06:59:40.000Z,100579.28
2022-08-27T07:02:08.818Z,100577.03
2022-08-27T07:04:37.410Z,100578.69
2022-08-27T07:07:06.174Z,100585.31
2022-08-27T07:09:35.754Z,100578.34
2022-08-27T07:12:06.972Z,100572.50
2022-08-27T07:14:38.249Z,100573.28
2022-08-27T07:17:11.022Z,100575.72
2022-08-27T07:19:44.622Z,100571.81
2022-08-27T07:22:13.210Z,100570.06
2022-08-27T07:24:41.728Z,100570.31
2022-08-27T07:27:11.818Z,100570.53
2022-08-27T07:29:41.121Z,100574.63
2022-08-27T07:32:09.877Z,100574.84
2022-08-27T07:34:38.456Z,100563.94
2022-08-27T07:37:07.002Z,100568.88
2022-08-27T07:39:35.536Z,100570.19
2022-08-27T07:42:21.534Z,100569.25
2022-08-27T07:44:51.508Z,100575.81
2022-08-27T07:47:20.117Z,100568.53
2022-08-27T07:49:48.717Z,100569.00
2022-08-27T07:52:17.762Z,100570.31
2022-08-27T07:54:46.356Z,100565.50
2022-08-27T07:57:15.106Z,100565.97
2022-08-27T07:59:43.646Z,100560.63
2022-08-27T08:02:14.054Z,100564.69
2022-08-27T08:04:42.602Z,100557.16
2022-08-27T08:07:11.235Z,100568.72
2022-08-27T08:09:39.889Z,100559.19
2022-08-27T08:12:08.784Z,100552.13
2022-08-27T08:14:37.762Z,100548.16
2022-08-27T08:17:10.618Z,100555.53
2022-08-27T08:19:41.279Z,100548.47
2022-08-27T08:22:10.307Z,100549.72
2022-08-27T08:24:38.780Z,100547.16
2022-08-27T08:27:08.055Z,100545.84
2022-08-27T08:29:37.795Z,100542.09
2022-08-27T08:32:06.971Z,100536.03
2022-08-27T08:34:37.015Z,100534.72
2022-08-27T08:37:08.064Z,100536.44
2022-08-27T08:39:38.870Z,100528.25
2022-08-27T08:42:19.320Z,100527.81
2022-08-27T08:44:53.776Z,100529.38
2022-08-27T08:47:26.526Z,100519.25
2022-08-27T08:50:00.517Z,100520.81
2022-08-27T08:52:44.978Z,100517.50
2022-08-27T08:55:29.067Z,100513.94
2022-08-27T08:58:09.052Z,100510.50
2022-08-27T09:00:39.939Z,100509.84
2022-08-27T09:03:09.785Z,100505.94
2022-08-27T09:05:41.697Z,100500.75
2022-08-27T09:08:34.005Z,100502.19
2022-08-27T09:11:12.036Z,100502.31
2022-08-27T09:13:45.132Z,100495.91
2022-08-27T09:16:13.681Z,100495.09
2022-08-27T09:18:45.309Z,100494.59
2022-08-27T09:21:27.614Z,100499.44
2022-08-27T09:24:07.195Z,100506.00
2022-08-27T09:26:40.500Z,100497.97
2022-08-27T09:29:20.363Z,100494.41
2022-08-27T09:31:55.804Z,100487.81
2022-08-27T09:34:25.334Z,100498.34
2022-08-27T09:37:03.697Z,100493.25
2022-08-27T09:39:43.105Z,100495.72
2022-08-27T09:42:27.288Z,100491.78
2022-08-27T09:44:56.007Z,100497.22
2022-08-27T09:47:25.424Z,100498.34
2022-08-27T09:50:08.881Z,100493.59
2022-08-27T09:52:49.219Z,100496.69
2022-08-27T09:55:36.898Z,100501.78
2022-08-27T09:58:06.871Z,100493.75
2022-08-27T10:00:39.438Z,100497.00
2022-08-27T10:03:09.554Z,100494.06
2022-08-27T10:05:44.379Z,100492.41
2022-08-27T10:08:23.709Z,100490.41
2022-08-27T10:10:59.133Z,100490.25
2022-08-27T10:13:33.887Z,100495.56
2022-08-27T10:16:18.207Z,100496.38
2022-08-27T10:18:55.537Z,100489.16
2022-08-27T10:24:35.207Z,100491.44
2022-08-27T10:27:14.641Z,100485.69
2022-08-27T10:29:52.118Z,100475.25
2022-08-27T10:32:40.265Z,100473.47
2022-08-27T10:35:14.244Z,100485.75
2022-08-27T10:37:52.350Z,100478.53
2022-08-27T10:40:27.854Z,100474.22
2022-08-27T10:43:11.219Z,100472.97
2022-08-27T10:45:48.649Z,100469.53
2022-08-27T10:48:25.425Z,100475.13
2022-08-27T10:51:06.022Z,100463.38
2022-08-27T10:53:44.281Z,100466.13
2022-08-27T10:56:18.570Z,100465.78
2022-08-27T10:59:07.097Z,100460.31
2022-08-27T11:01:43.854Z,100461.47
2022-08-27T11:04:16.914Z,100457.50
2022-08-27T11:06:52.424Z,100458.88
2022-08-27T11:09:24.829Z,100460.00
2022-08-27T11:12:13.885Z,100461.69
2022-08-27T11:14:49.541Z,100460.31
2022-08-27T11:17:26.893Z,100462.38
2022-08-27T11:20:08.144Z,100462.06
2022-08-27T11:22:41.853Z,100457.38
2022-08-27T11:25:28.738Z,100459.88
2022-08-27T11:27:59.250Z,100458.81
2022-08-27T11:30:40.091Z,100455.00
2022-08-27T11:33:17.137Z,100450.94
2022-08-27T11:36:03.462Z,100450.59
2022-08-27T11:38:45.917Z,100460.22
2022-08-27T11:41:30.016Z,100450.00
2022-08-27T11:44:15.024Z,100443.75
2022-08-27T11:46:48.737Z,100446.09
2022-08-27T11:49:28.245Z,100451.53
2022-08-27T11:52:03.665Z,100450.56
2022-08-27T11:54:45.605Z,100463.22
2022-08-27T11:57:27.666Z,100452.81
2022-08-27T11:59:56.144Z,100446.97
2022-08-27T12:02:28.318Z,100447.91
2022-08-27T12:05:09.193Z,100442.63
2022-08-27T12:07:40.026Z,100446.41
2022-08-27T12:10:21.857Z,100440.81
2022-08-27T12:13:00.710Z,100445.56
2022-08-27T12:15:44.677Z,100436.19
2022-08-27T12:18:37.328Z,100435.38
2022-08-27T12:21:19.786Z,100441.88
2022-08-27T12:24:04.711Z,100436.28
2022-08-27T12:26:35.779Z,100438.38
2022-08-27T12:29:29.383Z,100435.75
2022-08-27T12:32:06.630Z,100437.22
2022-08-27T12:34:45.720Z,100432.63
2022-08-27T12:37:14.661Z,100430.66
2022-08-27T12:39:49.595Z,100427.22
2022-08-27T12:42:21.930Z,100427.53
2022-08-27T12:44:56.405Z,100423.94
2022-08-27T12:47:25.524Z,100428.84
2022-08-27T12:49:58.948Z,100421.19
2022-08-27T12:52:53.542Z,100420.00
2022-08-27T12:55:35.177Z,100418.22
2022-08-27T12:58:15.619Z,100414.13
2022-08-27T13:01:13.493Z,100404.63
2022-08-27T13:03:46.297Z,100411.38
2022-08-27T13:06:21.478Z,100407.94
2022-08-27T13:08:54.861Z,100409.56
2022-08-27T13:11:27.064Z,100410.31
2022-08-27T13:14:07.250Z,100411.13
2022-08-27T13:16:39.684Z,100412.13
2022-08-27T13:19:09.657Z,100413.41
2022-08-27T13:21:39.581Z,100399.66
2022-08-27T13:24:08.453Z,100417.00
2022-08-27T13:26:39.318Z,100406.00
2022-08-27T13:29:09.373Z,100401.75
2022-08-27T13:31:39.450Z,100408.94
2022-08-27T13:34:08.420Z,100406.13
2022-08-27T13:36:52.637Z,100402.53
2022-08-27T13:39:23.398Z,100399.09
2022-08-27T13:41:52.438Z,100396.09
2022-08-27T13:44:24.414Z,100400.34
2022-08-27T13:47:00.253Z,100396.59
2022-08-27T13:49:32.001Z,100394.34
2022-08-27T13:52:04.314Z,100398.94
2022-08-27T13:54:33.744Z,100391.03
2022-08-27T13:57:08.645Z,100394.94
2022-08-27T13:59:43.030Z,100384.50
2022-08-27T14:02:25.567Z,100396.16
2022-08-27T14:05:11.444Z,100394.34
2022-08-27T14:07:47.616Z,100385.34
2022-08-27T14:10:34.543Z,100388.31
2022-08-27T14:13:07.329Z,100393.19
2022-08-27T14:15:38.665Z,100384.22
2022-08-27T14:18:09.044Z,100388.13
2022-08-27T14:20:37.930Z,100385.78
2022-08-27T14:23:07.792Z,100380.50
2022-08-27T14:25:36.309Z,100379.38
2022-08-27T14:28:05.591Z,100381.00
2022-08-27T14:30:34.489Z,100377.72
2022-08-27T14:33:03.712Z,100378.53
2022-08-27T14:35:34.581Z,100376.09
2022-08-27T14:38:09.899Z,100376.41
2022-08-27T14:40:38.495Z,100374.75
2022-08-27T14:43:07.667Z,100374.72
2022-08-27T14:45:37.277Z,100378.34
2022-08-27T14:48:08.436Z,100378.16
2022-08-27T14:50:47.185Z,100377.78
2022-08-27T14:53:17.596Z,100377.94
2022-08-27T14:55:46.784Z,100380.84
2022-08-27T14:58:20.552Z,100374.59
2022-08-27T15:00:49.648Z,100372.31
2022-08-27T15:03:20.014Z,100373.94
2022-08-27T15:05:48.424Z,100373.09
2022-08-27T15:08:19.108Z,100375.69
2022-08-27T15:10:47.814Z,100377.03
2022-08-27T15:13:16.466Z,100367.41
2022-08-27T15:15:45.042Z,100374.47
2022-08-27T15:18:13.526Z,100373.63
2022-08-27T15:20:42.946Z,100367.03
2022-08-27T15:23:13.890Z,100365.41
2022-08-27T15:25:46.101Z,100362.13
2022-08-27T15:28:14.716Z,100368.63
2022-08-27T15:30:43.474Z,100366.47
2022-08-27T15:33:12.014Z,100369.28
2022-08-27T15:35:40.597Z,100365.81
2022-08-27T15:38:09.105Z,100367.59
2022-08-27T15:40:38.029Z,100365.09
2022-08-27T15:43:09.525Z,100369.03
2022-08-27T15:45:38.068Z,100363.56
2022-08-27T15:48:07.278Z,100362.75
2022-08-27T15:50:36.122Z,100363.38
2022-08-27T15:53:07.000Z,100370.63
2022-08-27T15:55:37.712Z,100355.38
2022-08-27T15:58:08.900Z,100362.06
2022-08-27T16:00:39.333Z,100363.53
2022-08-27T16:03:11.380Z,100363.84
2022-08-27T16:05:42.014Z,100357.06
2022-08-27T16:08:11.388Z,100355.41
2022-08-27T16:10:40.470Z,100353.78
2022-08-27T16:13:10.273Z,100349.63
2022-08-27T16:15:40.834Z,100351.91
2022-08-27T16:18:11.150Z,100356.97
2022-08-27T16:20:40.156Z,100361.50
2022-08-27T16:23:08.591Z,100356.38
2022-08-27T16:25:37.170Z,100354.22
2022-08-27T16:28:05.589Z,100354.22
2022-08-27T16:30:35.351Z,100352.06
2022-08-27T16:33:04.081Z,100355.78
2022-08-27T16:35:32.552Z,100361.16
2022-08-27T16:38:00.973Z,100358.50
2022-08-27T16:40:29.954Z,100353.56
2022-08-27T16:43:01.520Z,100361.69
2022-08-27T16:45:30.081Z,100357.88
2022-08-27T16:48:17.422Z,100359.94
2022-08-27T16:50:45.927Z,100363.94
2022-08-27T16:53:16.883Z,100365.16
2022-08-27T16:55:46.968Z,100361.69
2022-08-27T16:58:19.317Z,100361.97
2022-08-27T17:00:50.315Z,100359.84
2022-08-27T17:03:22.020Z,100369.00
2022-08-27T17:05:51.230Z,100358.72
2022-08-27T17:08:21.643Z,100367.13
2022-08-27T17:10:56.862Z,100367.44
2022-08-27T17:13:28.520Z,100361.16
2022-08-27T17:15:57.740Z,100371.16
2022-08-27T17:18:28.439Z,100372.91
2022-08-27T17:21:00.299Z,100360.94
2022-08-27T17:23:34.094Z,100373.19
2022-08-27T17:26:03.001Z,100374.34
2022-08-27T17:28:31.601Z,100375.16
2022-08-27T17:31:01.547Z,100372.38
2022-08-27T17:33:33.455Z,100376.28
2022-08-27T17:36:01.981Z,100379.38
2022-08-27T17:38:32.891Z,100381.31
2022-08-27T17:41:07.176Z,100376.38
2022-08-27T17:43:35.600Z,100377.00
2022-08-27T17:46:04.364Z,100385.63
2022-08-27T17:48:34.374Z,100381.22
2022-08-27T17:51:03.432Z,100383.78
2022-08-27T17:53:31.806Z,100390.78
2022-08-27T17:56:01.390Z,100390.25
2022-08-27T17:58:30.243Z,100390.03
2022-08-27T18:00:58.777Z,100388.09
2022-08-27T18:03:27.296Z,100393.94
2022-08-27T18:05:57.175Z,100389.50
2022-08-27T18:08:25.629Z,100391.75
2022-08-27T18:10:54.941Z,100392.06
2022-08-27T18:13:23.416Z,100396.25
2022-08-27T18:15:52.293Z,100394.91
2022-08-27T18:18:20.687Z,100397.19
2022-08-27T18:20:49.082Z,100389.16
2022-08-27T18:23:21.803Z,100387.28
2022-08-27T18:25:51.214Z,100393.22
2022-08-27T18:28:22.361Z,100392.72
2022-08-27T18:30:51.557Z,100391.66
2022-08-27T18:33:20.234Z,100389.53
2022-08-27T18:35:48.896Z,100393.19
2022-08-27T18:38:21.723Z,100392.69
2022-08-27T18:40:51.775Z,100388.88
2022-08-27T18:43:22.689Z,100396.66
2022-08-27T18:45:51.159Z,100390.88
2022-08-27T18:48:22.627Z,100394.56
2022-08-27T18:50:55.692Z,100385.72
2022-08-27T18:53:26.557Z,100380.50
2022-08-27T18:55:55.560Z,100381.88
2022-08-27T18:58:24.298Z,100384.75
2022-08-27T19:00:56.860Z,100384.22
2022-08-27T19:03:29.232Z,100382.03
2022-08-27T19:05:58.082Z,100390.94
2022-08-27T19:08:30.760Z,100389.09
2022-08-27T19:10:59.197Z,100385.56
2022-08-27T19:13:27.869Z,100386.41
2022-08-27T19:16:00.090Z,100392.81
2022-08-27T19:18:30.749Z,100382.66
2022-08-27T19:20:59.248Z,100387.66
2022-08-27T19:23:28.223Z,100381.59
2022-08-27T19:25:59.479Z,100384.06
2022-08-27T19:28:33.003Z,100383.56
2022-08-27T19:31:01.404Z,100379.09
2022-08-27T19:33:29.845Z,100386.09
2022-08-27T19:35:58.593Z,100383.59
2022-08-27T19:38:29.687Z,100387.81
2022-08-27T19:41:00.495Z,100385.66
2022-08-27T19:43:29.224Z,100381.81
2022-08-27T19:45:59.650Z,100384.88
2022-08-27T19:48:28.243Z,100387.72
2022-08-27T19:50:57.176Z,100383.34
2022-08-27T19:53:26.111Z,100379.22
2022-08-27T19:55:54.860Z,100386.47
2022-08-27T19:58:25.045Z,100386.53
2022-08-27T20:00:53.625Z,100387.41
2022-08-27T20:03:22.136Z,100378.88
2022-08-27T20:05:52.783Z,100387.75
2022-08-27T20:08:21.406Z,100378.41
2022-08-27T20:10:50.279Z,100380.94
2022-08-27T20:13:19.689Z,100377.66
2022-08-27T20:15:51.874Z,100386.78
2022-08-27T20:18:20.392Z,100373.22
2022-08-27T20:20:49.423Z,100381.84
2022-08-27T20:23:18.241Z,100372.72
2022-08-27T20:25:46.786Z,100369.41
2022-08-27T20:28:38.481Z,100379.13
2022-08-27T20:31:05.212Z,100374.47
2022-08-27T20:33:34.287Z,100381.44
2022-08-27T20:36:03.228Z,100377.31
2022-08-27T20:38:31.702Z,100385.38
2022-08-27T20:41:00.121Z,100389.25
2022-08-27T20:43:28.814Z,100381.78
2022-08-27T20:45:57.715Z,100382.69
2022-08-27T20:48:28.427Z,100382.44
2022-08-27T20:50:57.334Z,100371.94
2022-08-27T20:53:26.128Z,100377.25
2022-08-27T20:55:56.618Z,100378.94
2022-08-27T20:58:42.910Z,100386.19
2022-08-27T21:01:12.033Z,100379.03
2022-08-27T21:03:42.016Z,100385.16
2022-08-27T21:06:10.522Z,100380.50
2022-08-27T21:08:40.027Z,100382.19
2022-08-27T21:11:10.978Z,100377.81
2022-08-27T21:13:55.342Z,100374.53
2022-08-27T21:16:25.360Z,100378.97
2022-08-27T21:18:55.830Z,100378.72
2022-08-27T21:21:24.642Z,100377.66
2022-08-27T21:23:53.049Z,100377.09
2022-08-27T21:26:23.165Z,100378.78
2022-08-27T21:28:55.811Z,100378.53
2022-08-27T21:31:25.463Z,100373.00
2022-08-27T21:33:55.406Z,100376.38
2022-08-27T21:36:24.468Z,100368.66
2022-08-27T21:38:53.111Z,100359.81
2022-08-27T21:41:21.724Z,100364.50
2022-08-27T21:43:50.619Z,100364.81
2022-08-27T21:46:19.728Z,100362.31
2022-08-27T21:48:48.415Z,100361.78
2022-08-27T21:51:28.751Z,100363.19
2022-08-27T21:53:58.811Z,100363.47
2022-08-27T21:56:27.885Z,100361.81
2022-08-27T21:58:56.360Z,100367.09
2022-08-27T22:01:24.887Z,100360.19
2022-08-27T22:03:53.406Z,100358.56
2022-08-27T22:06:22.328Z,100358.31
2022-08-27T22:08:52.179Z,100346.72
2022-08-27T22:11:23.988Z,100346.16
2022-08-27T22:13:53.129Z,100344.81
2022-08-27T22:16:21.723Z,100350.06
2022-08-27T22:18:54.525Z,100349.56
2022-08-27T22:21:24.154Z,100343.78
2022-08-27T22:23:54.076Z,100340.47
2022-08-27T22:26:23.367Z,100340.75
2022-08-27T22:28:51.915Z,100334.16
2022-08-27T22:31:20.516Z,100338.31
2022-08-27T22:33:49.122Z,100343.25
2022-08-27T22:36:17.648Z,100346.56
2022-08-27T22:38:46.265Z,100338.88
2022-08-27T22:41:18.461Z,100339.47
2022-08-27T22:43:47.431Z,100331.72
2022-08-27T22:46:16.114Z,100337.53
2022-08-27T22:48:44.588Z,100337.00
2022-08-27T22:51:13.085Z,100339.22
2022-08-27T22:53:41.519Z,100339.78
2022-08-27T22:56:10.136Z,100340.38
2022-08-27T22:58:40.789Z,100336.50
2022-08-27T23:01:14.791Z,100335.16
2022-08-27T23:03:43.293Z,100339.00
2022-08-27T23:06:11.838Z,100337.66
2022-08-27T23:08:40.917Z,100339.84
2022-08-27T23:11:09.451Z,100340.16
2022-08-27T23:13:41.256Z,100338.78
2022-08-27T23:16:10.563Z,100328.84
2022-08-27T23:18:39.967Z,100331.06
2022-08-27T23:21:09.904Z,100328.03
2022-08-27T23:23:39.486Z,100325.56
2022-08-27T23:26:25.647Z,100336.06
2022-08-27T23:28:56.390Z,100332.72
2022-08-27T23:31:24.920Z,100325.88
2022-08-27T23:33:54.013Z,100323.38
2022-08-27T23:36:22.525Z,100319.78
2022-08-27T23:38:51.132Z,100323.94
2022-08-27T23:41:19.618Z,100319.53
2022-08-27T23:43:48.091Z,100319.00
2022-08-27T23:46:18.076Z,100326.44
2022-08-27T23:48:46.505Z,100319.56
2022-08-27T23:51:14.959Z,100321.72
2022-08-27T23:53:43.458Z,100320.09
2022-08-27T23:56:11.977Z,100322.28
2022-08-27T23:58:40.516Z,100319.81
